createdAt,value
2019-02-07T00:01:21.254Z,32.70
2019-02-07T00:03:50.652Z,37.83
2019-02-07T00:06:20.528Z,34.37
2019-02-07T00:08:49.865Z,33.83
2019-02-07T00:11:19.267Z,34.77
2019-02-07T00:13:48.624Z,36.30
2019-02-07T00:16:18.023Z,31.07
2019-02-07T00:18:47.304Z,33.93
2019-02-07T00:21:16.634Z,36.73
2019-02-07T00:23:46.036Z,36.63
2019-02-07T00:26:15.366Z,37.87
2019-02-07T00:28:45.152Z,35.47
2019-02-07T00:31:14.433Z,37.33
2019-02-07T00:33:44.771Z,38.27
2019-02-07T00:36:14.068Z,35.87
2019-02-07T00:38:43.465Z,36.60
2019-02-07T00:41:12.864Z,36.97
2019-02-07T00:43:42.145Z,35.97
2019-02-07T00:46:11.951Z,32.53
2019-02-07T00:48:41.240Z,34.90
2019-02-07T00:51:10.581Z,35.77
2019-02-07T00:53:39.871Z,34.77
2019-02-07T00:56:09.272Z,34.23
2019-02-07T00:58:38.576Z,35.73
2019-02-07T01:01:09.872Z,33.87
2019-02-07T01:03:39.561Z,37.43
2019-02-07T01:06:08.984Z,33.57
2019-02-07T01:08:38.728Z,34.20
2019-02-07T01:11:08.052Z,34.67
2019-02-07T01:13:37.368Z,33.63
2019-02-07T01:16:06.895Z,29.97
2019-02-07T01:18:36.264Z,31.80
2019-02-07T01:21:06.048Z,32.13
2019-02-07T01:23:35.373Z,33.90
2019-02-07T01:26:04.971Z,34.93
2019-02-07T01:28:34.351Z,34.27
2019-02-07T01:31:03.720Z,32.60
2019-02-07T01:33:33.039Z,34.27
2019-02-07T01:36:02.349Z,32.23
2019-02-07T01:38:31.668Z,30.77
2019-02-07T01:41:00.996Z,30.97
2019-02-07T01:43:30.754Z,30.33
2019-02-07T01:46:00.758Z,34.37
2019-02-07T01:48:30.116Z,31.07
2019-02-07T01:50:59.432Z,30.93
2019-02-07T01:53:28.764Z,31.47
2019-02-07T01:55:58.137Z,32.00
2019-02-07T01:58:27.545Z,32.23
2019-02-07T02:00:57.650Z,33.13
2019-02-07T02:03:27.024Z,32.63
2019-02-07T02:05:56.351Z,33.07
2019-02-07T02:08:25.705Z,34.00
2019-02-07T02:10:55.581Z,33.53
2019-02-07T02:13:25.040Z,36.60
2019-02-07T02:15:54.328Z,35.73
2019-02-07T02:18:24.511Z,39.20
2019-02-07T02:20:53.794Z,41.20
2019-02-07T02:23:23.189Z,42.87
2019-02-07T02:25:52.576Z,37.33
2019-02-07T02:28:21.877Z,37.60
2019-02-07T02:30:51.200Z,39.37
2019-02-07T02:33:20.620Z,41.00
2019-02-07T02:35:50.013Z,43.57
2019-02-07T02:38:19.382Z,44.97
2019-02-07T02:40:48.700Z,38.97
2019-02-07T02:43:18.073Z,41.17
2019-02-07T02:45:47.469Z,36.77
2019-02-07T02:48:16.757Z,38.70
2019-02-07T02:50:46.096Z,36.87
2019-02-07T02:53:15.448Z,38.87
2019-02-07T02:55:45.776Z,36.27
2019-02-07T02:58:15.062Z,38.30
2019-02-07T03:01:06.397Z,35.33
2019-02-07T03:03:47.715Z,41.30
2019-02-07T03:06:41.504Z,37.43
2019-02-07T03:09:34.613Z,36.93
2019-02-07T03:12:22.669Z,36.83
2019-02-07T03:15:23.319Z,35.90
2019-02-07T03:18:05.112Z,33.97
2019-02-07T03:20:51.980Z,36.53
2019-02-07T03:23:39.198Z,40.00
2019-02-07T03:26:26.050Z,37.43
2019-02-07T03:29:13.252Z,37.47
2019-02-07T03:32:10.849Z,43.03
2019-02-07T03:34:57.848Z,35.93
2019-02-07T03:37:46.112Z,37.00
2019-02-07T03:40:39.601Z,36.23
2019-02-07T03:43:27.657Z,36.50
2019-02-07T03:46:14.855Z,44.37
2019-02-07T03:49:18.474Z,49.50
2019-02-07T03:52:15.748Z,46.23
2019-02-07T03:55:02.739Z,45.53
2019-02-07T03:57:49.520Z,45.33
2019-02-07T04:00:41.469Z,45.30
2019-02-07T04:03:32.505Z,44.77
2019-02-07T04:06:20.686Z,42.53
2019-02-07T04:09:12.432Z,43.70
2019-02-07T04:11:56.836Z,45.00
2019-02-07T04:14:37.357Z,50.03
2019-02-07T04:17:31.742Z,41.47
2019-02-07T04:20:26.048Z,47.10
2019-02-07T04:23:26.613Z,43.87
2019-02-07T04:26:24.778Z,46.07
2019-02-07T04:29:09.212Z,44.57
2019-02-07T04:31:57.394Z,45.80
2019-02-07T04:34:44.497Z,42.40
2019-02-07T04:37:38.688Z,44.43
2019-02-07T04:40:34.159Z,48.07
2019-02-07T04:43:28.503Z,46.77
2019-02-07T04:46:30.182Z,45.17
2019-02-07T04:49:21.310Z,49.90
2019-02-07T04:52:03.956Z,46.83
2019-02-07T04:54:41.081Z,47.57
2019-02-07T04:57:29.304Z,50.13
2019-02-07T05:00:17.649Z,53.37
2019-02-07T05:03:05.336Z,48.00
2019-02-07T05:06:02.003Z,47.37
2019-02-07T05:08:50.300Z,49.37
2019-02-07T05:11:37.292Z,46.63
2019-02-07T05:14:15.110Z,48.03
2019-02-07T05:17:12.683Z,45.47
2019-02-07T05:19:59.798Z,45.30
2019-02-07T05:22:48.138Z,44.97
2019-02-07T05:25:35.793Z,47.50
2019-02-07T05:28:17.440Z,42.03
2019-02-07T05:30:57.703Z,44.00
2019-02-07T05:33:57.930Z,48.67
2019-02-07T05:36:42.296Z,44.57
2019-02-07T05:39:30.247Z,45.73
2019-02-07T05:42:27.584Z,57.03
2019-02-07T05:45:12.320Z,46.27
2019-02-07T05:47:50.484Z,45.27
2019-02-07T05:50:37.673Z,43.37
2019-02-07T05:53:32.040Z,41.97
2019-02-07T05:56:29.308Z,44.03
2019-02-07T05:59:23.417Z,43.00
2019-02-07T06:02:00.176Z,38.87
2019-02-07T06:04:57.296Z,40.90
2019-02-07T06:07:39.108Z,39.93
2019-02-07T06:10:28.180Z,39.00
2019-02-07T06:13:19.296Z,36.77
2019-02-07T06:16:08.928Z,39.73
2019-02-07T06:19:09.551Z,36.80
2019-02-07T06:21:48.338Z,35.20
2019-02-07T06:24:48.904Z,33.77
2019-02-07T06:27:36.744Z,35.07
2019-02-07T06:30:19.981Z,36.97
2019-02-07T06:33:07.302Z,36.63
2019-02-07T06:36:01.801Z,34.67
2019-02-07T06:39:08.745Z,39.47
2019-02-07T06:42:15.512Z,37.43
2019-02-07T06:45:03.050Z,36.40
2019-02-07T06:47:49.321Z,37.30
2019-02-07T06:50:38.524Z,41.70
2019-02-07T06:53:25.641Z,40.53
2019-02-07T06:56:12.784Z,41.27
2019-02-07T06:59:03.902Z,41.70
2019-02-07T07:01:50.923Z,44.07
2019-02-07T07:04:34.348Z,44.27
2019-02-07T07:07:37.796Z,43.53
2019-02-07T07:10:18.972Z,45.47
2019-02-07T07:13:16.323Z,48.13
2019-02-07T07:16:07.564Z,47.37
2019-02-07T07:19:01.944Z,52.30
2019-02-07T07:22:08.567Z,52.13
2019-02-07T07:25:00.717Z,50.07
2019-02-07T07:27:47.664Z,48.07
2019-02-07T07:30:55.558Z,46.67
2019-02-07T07:33:45.448Z,43.57
2019-02-07T07:36:32.544Z,52.70
2019-02-07T07:39:23.052Z,50.00
2019-02-07T07:42:12.337Z,53.63
2019-02-07T07:45:06.606Z,49.30
2019-02-07T07:47:53.523Z,48.63
2019-02-07T07:50:54.268Z,47.87
2019-02-07T07:53:48.617Z,53.40
2019-02-07T07:56:40.296Z,51.40
2019-02-07T07:59:46.843Z,51.20
2019-02-07T08:02:43.332Z,49.03
2019-02-07T08:05:20.286Z,47.43
2019-02-07T08:08:07.840Z,51.30
2019-02-07T08:11:11.541Z,49.87
2019-02-07T08:13:53.619Z,57.73
2019-02-07T08:16:41.883Z,52.70
2019-02-07T08:19:30.231Z,50.27
2019-02-07T08:22:24.706Z,53.03
2019-02-07T08:25:11.508Z,51.53
2019-02-07T08:28:06.456Z,53.90
2019-02-07T08:31:12.988Z,48.27
2019-02-07T08:34:00.199Z,49.73
2019-02-07T08:36:51.008Z,44.57
2019-02-07T08:39:57.860Z,44.07
2019-02-07T08:42:52.200Z,45.40
2019-02-07T08:45:49.818Z,46.67
2019-02-07T08:48:44.646Z,44.00
2019-02-07T08:51:45.044Z,43.67
2019-02-07T08:54:32.276Z,47.63
2019-02-07T08:57:31.101Z,45.93
2019-02-07T09:00:20.988Z,47.57
2019-02-07T09:03:08.354Z,46.03
2019-02-07T09:06:09.821Z,51.20
2019-02-07T09:09:07.091Z,50.73
2019-02-07T09:11:52.537Z,52.10
2019-02-07T09:14:43.674Z,55.97
2019-02-07T09:17:23.136Z,54.40
2019-02-07T09:20:03.016Z,60.17
2019-02-07T09:22:46.800Z,49.57
2019-02-07T09:25:34.570Z,53.60
2019-02-07T09:28:32.926Z,54.20
2019-02-07T09:31:21.073Z,54.00
2019-02-07T09:34:08.049Z,52.03
2019-02-07T09:37:02.296Z,51.53
2019-02-07T09:39:50.569Z,53.50
2019-02-07T09:42:51.208Z,53.77
2019-02-07T09:45:39.388Z,51.33
2019-02-07T09:48:33.809Z,54.90
2019-02-07T09:51:27.921Z,53.97
2019-02-07T09:54:11.900Z,54.33
2019-02-07T09:57:09.348Z,56.27
2019-02-07T10:00:03.687Z,48.03
2019-02-07T10:02:51.984Z,52.90
2019-02-07T10:05:47.844Z,53.80
2019-02-07T10:08:32.676Z,58.23
2019-02-07T10:11:18.692Z,54.53
2019-02-07T10:14:14.122Z,55.37
2019-02-07T10:17:08.662Z,59.40
2019-02-07T10:19:55.208Z,58.23
2019-02-07T10:22:43.316Z,57.03
2019-02-07T10:25:30.688Z,56.20
2019-02-07T10:28:33.329Z,57.60
2019-02-07T10:31:20.081Z,58.13
2019-02-07T10:34:07.029Z,62.87
2019-02-07T10:37:07.953Z,60.97
2019-02-07T10:39:48.757Z,60.00
2019-02-07T10:42:28.038Z,57.27
2019-02-07T10:45:20.434Z,55.37
2019-02-07T10:48:08.772Z,55.37
2019-02-07T10:51:03.016Z,57.33
2019-02-07T10:53:57.164Z,54.53
2019-02-07T10:56:49.044Z,55.87
2019-02-07T10:59:35.942Z,57.80
2019-02-07T11:02:24.739Z,56.17
2019-02-07T11:05:29.205Z,59.00
2019-02-07T11:08:06.904Z,53.13
2019-02-07T11:10:54.876Z,59.33
2019-02-07T11:13:52.369Z,55.57
2019-02-07T11:16:31.382Z,54.97
2019-02-07T11:19:31.572Z,54.70
2019-02-07T11:22:18.894Z,52.37
2019-02-07T11:25:07.143Z,54.10
2019-02-07T11:28:10.138Z,50.67
2019-02-07T11:31:00.141Z,52.07
2019-02-07T11:33:51.229Z,58.73
2019-02-07T11:36:29.829Z,52.50
2019-02-07T11:39:18.097Z,56.37
2019-02-07T11:42:24.777Z,53.90
2019-02-07T11:45:13.068Z,51.47
2019-02-07T11:48:00.260Z,54.80
2019-02-07T11:51:00.900Z,53.70
2019-02-07T11:53:47.807Z,53.13
2019-02-07T11:56:28.125Z,51.00
2019-02-07T11:59:31.745Z,50.00
2019-02-07T12:02:35.225Z,51.27
2019-02-07T12:05:24.230Z,53.87
2019-02-07T12:08:16.310Z,54.63
2019-02-07T12:11:22.836Z,55.13
2019-02-07T12:14:10.267Z,56.27
2019-02-07T12:17:02.163Z,55.53
2019-02-07T12:19:56.328Z,51.90
2019-02-07T12:22:44.476Z,51.97
2019-02-07T12:25:40.165Z,51.97
2019-02-07T12:28:21.692Z,50.60
2019-02-07T12:31:19.820Z,52.40
2019-02-07T12:34:23.280Z,50.67
2019-02-07T12:37:14.555Z,55.23
2019-02-07T12:40:09.061Z,48.90
2019-02-07T12:42:56.312Z,52.13
2019-02-07T12:45:42.220Z,50.87
2019-02-07T12:48:43.066Z,49.03
2019-02-07T12:51:30.111Z,50.27
2019-02-07T12:54:17.034Z,49.97
2019-02-07T12:57:07.053Z,49.77
2019-02-07T13:00:07.678Z,51.93
2019-02-07T13:02:59.069Z,48.27
2019-02-07T13:05:59.504Z,50.50
2019-02-07T13:08:50.729Z,50.50
2019-02-07T13:11:47.887Z,51.17
2019-02-07T13:14:31.863Z,53.07
2019-02-07T13:17:22.995Z,53.73
2019-02-07T13:20:14.242Z,50.17
2019-02-07T13:22:58.454Z,51.50
2019-02-07T13:25:45.249Z,50.17
2019-02-07T13:28:24.578Z,49.13
2019-02-07T13:31:18.907Z,47.93
2019-02-07T13:34:16.525Z,49.97
2019-02-07T13:37:03.739Z,52.37
2019-02-07T13:39:47.633Z,46.93
2019-02-07T13:42:50.662Z,48.37
2019-02-07T13:45:41.056Z,52.27
2019-02-07T13:48:38.617Z,50.67
2019-02-07T13:51:26.276Z,48.27
2019-02-07T13:54:17.844Z,48.03
2019-02-07T13:57:07.909Z,50.53
2019-02-07T14:00:02.585Z,48.57
2019-02-07T14:02:49.655Z,49.47
2019-02-07T14:05:40.779Z,44.73
2019-02-07T14:08:44.318Z,48.73
2019-02-07T14:11:31.655Z,49.53
2019-02-07T14:14:38.993Z,49.77
2019-02-07T14:17:33.069Z,44.73
2019-02-07T14:20:16.543Z,43.90
2019-02-07T14:23:03.544Z,45.27
2019-02-07T14:25:47.871Z,49.30
2019-02-07T14:28:35.177Z,45.47
2019-02-07T14:31:23.556Z,45.60
2019-02-07T14:34:30.019Z,48.97
2019-02-07T14:37:34.370Z,45.80
2019-02-07T14:40:30.503Z,44.37
2019-02-07T14:43:17.684Z,45.43
2019-02-07T14:46:18.131Z,45.50
2019-02-07T14:48:47.413Z,46.03
2019-02-07T14:51:16.794Z,47.03
2019-02-07T14:53:46.252Z,49.60
2019-02-07T14:56:16.240Z,49.17
2019-02-07T14:58:45.723Z,48.80
2019-02-07T15:01:15.056Z,47.83
2019-02-07T15:03:44.385Z,50.73
2019-02-07T15:06:13.892Z,46.87
2019-02-07T15:08:43.287Z,48.83
2019-02-07T15:11:12.676Z,53.33
2019-02-07T15:13:42.122Z,48.13
2019-02-07T15:16:12.527Z,52.67
2019-02-07T15:18:41.948Z,52.13
2019-02-07T15:21:11.319Z,50.07
2019-02-07T15:23:40.856Z,51.73
2019-02-07T15:26:10.372Z,48.30
2019-02-07T15:28:39.791Z,48.40
2019-02-07T15:31:09.601Z,47.63
2019-02-07T15:33:39.090Z,50.87
2019-02-07T15:36:09.748Z,54.10
2019-02-07T15:38:39.140Z,54.17
2019-02-07T15:41:08.948Z,54.77
2019-02-07T15:43:38.328Z,57.37
2019-02-07T15:46:08.908Z,63.67
2019-02-07T15:48:38.375Z,62.57
2019-02-07T15:51:08.649Z,63.87
2019-02-07T15:53:38.036Z,62.50
2019-02-07T15:56:07.659Z,57.77
2019-02-07T15:58:47.877Z,59.57
2019-02-07T16:01:37.332Z,60.33
2019-02-07T16:04:13.526Z,61.27
2019-02-07T16:06:43.800Z,55.83
2019-02-07T16:09:15.015Z,59.00
2019-02-07T16:11:44.310Z,64.77
2019-02-07T16:14:13.665Z,75.73
2019-02-07T16:16:43.568Z,64.10
2019-02-07T16:19:12.932Z,55.67
2019-02-07T16:21:42.314Z,51.30
2019-02-07T16:24:12.132Z,55.20
2019-02-07T16:26:41.604Z,54.63
2019-02-07T16:29:11.068Z,53.23
2019-02-07T16:31:40.690Z,54.17
2019-02-07T16:34:10.272Z,52.00
2019-02-07T16:36:39.664Z,50.77
2019-02-07T16:39:10.027Z,51.43
2019-02-07T16:41:39.348Z,51.57
2019-02-07T16:44:08.628Z,50.37
2019-02-07T16:46:37.965Z,48.03
2019-02-07T16:49:08.169Z,49.27
2019-02-07T16:51:37.696Z,50.13
2019-02-07T16:54:06.982Z,58.90
2019-02-07T16:56:36.423Z,47.80
2019-02-07T16:59:05.760Z,52.30
2019-02-07T17:01:35.164Z,52.03
2019-02-07T17:04:05.891Z,50.67
2019-02-07T17:06:35.168Z,51.50
2019-02-07T17:09:09.403Z,53.77
2019-02-07T17:11:38.752Z,50.93
2019-02-07T17:14:08.075Z,54.07
2019-02-07T17:16:37.380Z,51.27
2019-02-07T17:19:06.929Z,54.73
2019-02-07T17:21:36.224Z,53.73
2019-02-07T17:24:05.566Z,55.60
2019-02-07T17:26:34.860Z,53.87
2019-02-07T17:29:04.600Z,56.60
2019-02-07T17:31:33.930Z,54.83
2019-02-07T17:34:03.298Z,54.30
2019-02-07T17:36:32.808Z,55.70
2019-02-07T17:39:02.232Z,54.57
2019-02-07T17:41:31.618Z,49.03
2019-02-07T17:44:01.020Z,51.60
2019-02-07T17:46:30.333Z,57.17
2019-02-07T17:49:00.541Z,59.53
2019-02-07T17:51:30.230Z,76.40
2019-02-07T17:53:59.630Z,69.93
2019-02-07T17:56:28.908Z,68.17
2019-02-07T17:58:58.248Z,67.67
2019-02-07T18:01:27.533Z,65.70
2019-02-07T18:03:57.548Z,58.97
2019-02-07T18:06:26.878Z,56.23
2019-02-07T18:08:56.248Z,52.97
2019-02-07T18:11:25.570Z,52.13
2019-02-07T18:13:54.933Z,51.77
2019-02-07T18:16:24.459Z,57.47
2019-02-07T18:18:54.641Z,56.30
2019-02-07T18:21:33.673Z,57.00
2019-02-07T18:23:55.165Z,51.90
2019-02-07T18:26:24.522Z,54.23
2019-02-07T18:28:53.872Z,49.70
2019-02-07T18:31:23.165Z,55.30
2019-02-07T18:33:52.760Z,51.87
2019-02-07T18:36:22.165Z,53.60
2019-02-07T18:38:51.649Z,53.27
2019-02-07T18:41:21.000Z,51.50
2019-02-07T18:43:50.396Z,54.43
2019-02-07T18:46:19.740Z,54.90
2019-02-07T18:48:50.028Z,51.20
2019-02-07T18:51:19.470Z,73.17
2019-02-07T18:53:48.920Z,59.37
2019-02-07T18:56:18.274Z,54.17
2019-02-07T18:58:47.627Z,59.17
2019-02-07T19:01:18.032Z,57.23
2019-02-07T19:03:48.312Z,55.40
2019-02-07T19:06:17.717Z,48.63
2019-02-07T19:08:47.124Z,73.43
2019-02-07T19:11:16.557Z,95.87
2019-02-07T19:13:46.032Z,75.67
2019-02-07T19:16:17.485Z,63.47
2019-02-07T19:18:47.940Z,58.83
2019-02-07T19:21:17.376Z,56.00
2019-02-07T19:23:46.809Z,57.97
2019-02-07T19:26:16.165Z,55.83
2019-02-07T19:28:45.486Z,55.03
2019-02-07T19:31:14.956Z,60.70
2019-02-07T19:33:46.267Z,60.33
2019-02-07T19:36:15.652Z,59.60
2019-02-07T19:38:45.016Z,55.57
2019-02-07T19:41:14.341Z,58.33
2019-02-07T19:43:45.580Z,54.13
2019-02-07T19:46:14.914Z,54.03
2019-02-07T19:48:45.576Z,61.97
2019-02-07T19:51:14.917Z,58.53
2019-02-07T19:53:44.267Z,54.97
2019-02-07T19:56:13.731Z,58.03
2019-02-07T19:58:43.060Z,58.83
2019-02-07T20:01:12.474Z,56.07
2019-02-07T20:03:42.756Z,57.23
2019-02-07T20:06:12.149Z,56.13
2019-02-07T20:08:41.500Z,52.87
2019-02-07T20:11:10.857Z,54.70
2019-02-07T20:13:40.200Z,57.90
2019-02-07T20:16:10.194Z,54.37
2019-02-07T20:18:40.481Z,54.87
2019-02-07T20:21:09.925Z,54.10
2019-02-07T20:23:39.707Z,53.30
2019-02-07T20:26:09.793Z,54.60
2019-02-07T20:28:39.242Z,54.87
2019-02-07T20:31:08.688Z,55.53
2019-02-07T20:33:38.229Z,51.97
2019-02-07T20:36:08.433Z,58.70
2019-02-07T20:38:37.900Z,56.53
2019-02-07T20:41:07.308Z,61.03
2019-02-07T20:43:36.727Z,59.70
2019-02-07T20:46:06.584Z,56.77
2019-02-07T20:48:36.040Z,65.97
2019-02-07T20:51:05.515Z,60.37
2019-02-07T20:53:34.949Z,62.07
2019-02-07T20:56:04.716Z,61.23
2019-02-07T20:58:34.189Z,58.23
2019-02-07T21:01:03.687Z,59.53
2019-02-07T21:03:33.698Z,57.73
2019-02-07T21:06:03.241Z,63.33
2019-02-07T21:08:33.511Z,64.93
2019-02-07T21:11:03.412Z,63.47
2019-02-07T21:13:32.952Z,60.50
2019-02-07T21:16:02.800Z,64.03
2019-02-07T21:18:32.940Z,61.30
2019-02-07T21:21:02.314Z,62.57
2019-02-07T21:23:32.946Z,59.63
2019-02-07T21:26:03.056Z,56.77
2019-02-07T21:28:32.978Z,61.47
2019-02-07T21:31:02.674Z,64.13
2019-02-07T21:33:32.652Z,61.17
2019-02-07T21:36:02.967Z,59.17
2019-02-07T21:38:33.114Z,63.03
2019-02-07T21:41:02.675Z,62.07
2019-02-07T21:43:32.505Z,59.13
2019-02-07T21:46:02.645Z,61.97
2019-02-07T21:48:32.852Z,62.30
2019-02-07T21:51:02.261Z,59.17
2019-02-07T21:53:32.089Z,64.80
2019-02-07T21:56:01.870Z,66.40
2019-02-07T21:58:31.535Z,64.23
2019-02-07T22:01:00.827Z,61.00
2019-02-07T22:03:30.172Z,59.93
2019-02-07T22:05:59.513Z,64.77
2019-02-07T22:08:28.817Z,62.23
2019-02-07T22:10:58.836Z,62.37
2019-02-07T22:13:28.155Z,59.77
2019-02-07T22:15:57.527Z,63.23
2019-02-07T22:18:26.913Z,62.60
2019-02-07T22:20:56.204Z,56.73
2019-02-07T22:23:25.603Z,59.87
2019-02-07T22:25:55.116Z,60.07
2019-02-07T22:28:24.496Z,57.57
2019-02-07T22:30:53.841Z,62.80
2019-02-07T22:33:23.171Z,64.70
2019-02-07T22:35:52.472Z,56.93
2019-02-07T22:38:21.843Z,60.60
2019-02-07T22:40:52.009Z,63.87
2019-02-07T22:43:21.328Z,61.50
2019-02-07T22:45:50.712Z,59.10
2019-02-07T22:48:20.041Z,57.10
2019-02-07T22:50:49.364Z,56.33
2019-02-07T22:53:18.704Z,57.00
2019-02-07T22:55:48.909Z,61.77
2019-02-07T22:58:18.235Z,60.20
2019-02-07T23:01:24.958Z,60.80
2019-02-07T23:03:58.992Z,60.40
2019-02-07T23:06:28.339Z,62.67
2019-02-07T23:08:58.049Z,63.20
2019-02-07T23:11:27.801Z,58.97
2019-02-07T23:13:57.468Z,57.57
2019-02-07T23:16:27.748Z,64.70
2019-02-07T23:18:57.067Z,58.43
2019-02-07T23:21:26.368Z,61.40
2019-02-07T23:23:55.689Z,57.20
2019-02-07T23:26:24.984Z,66.07
2019-02-07T23:28:54.336Z,61.30
2019-02-07T23:31:24.524Z,58.40
2019-02-07T23:33:53.944Z,59.60
2019-02-07T23:36:23.568Z,57.43
2019-02-07T23:38:52.850Z,60.83
2019-02-07T23:41:22.959Z,58.90
2019-02-07T23:43:52.288Z,54.83
2019-02-07T23:46:21.679Z,53.97
2019-02-07T23:48:51.082Z,53.57
2019-02-07T23:51:20.749Z,62.27
2019-02-07T23:53:50.095Z,56.83
2019-02-07T23:56:19.440Z,61.87
2019-02-07T23:58:48.716Z,59.07
